Weather Outlook 13th November 2019 (noon)

Saint Vincent and the Grenadines will experience a light to gentle wind regime during the next 72 hrs. This light wind regime at lower levels coupled with a brief increase in moisture at mid levels is likely to result in some showers tonight, with a moderate (50%) chance of isolated thunderstorms. A few brief scattered showers are likely on Thursday.

By Thursday evening, unstable conditions will be affecting the islands as a shearline pushes from the northwest over the Southern Windward Islands. An increase in cloud cover and some showers are likely by Friday, with model guidance indicating most of the convective activity from Friday night into Saturday across Saint Vincent and the Grenadines.

Sea conditions will be slight to moderate in open waters (1.0m -1.5m) throughout this forecast period. There will be no significant haze intrusion within this forecast period.

Aviation WX

[Source: ADDS]
METAR
TVSA 140500Z 1406/1506 06013KT 9999 SCT018 BECMG 1502/1504 BKN015 SCT035 TAF
TVSA 140500Z 1406/1506 06013KT 9999 SCT018 BECMG 1502/1504 BKN015 SCT035 =
SR / SS: 09:52 / 22:26 UTC (Sunrise Sunset 2020-08-14)